Brkston, Minnesota
Current Conditions -  °F | °C
As of 5:56 PM on Saturday 22 Nov 2014 (Local Time) from KCOQ Reporting Station
Haze Haze  
Wind Chill: 26°   Ceiling: 600
Heat Index: 34°   Visibility: 4mi
Dew Point: 30°   Wind: 9mph
Humidity: 87%   Direction: 160°SSE
Pressure: 29.59"   Gusts: NA
Location:  46.8211°N, 92.6871°W
Report Text: KCOQ 222356Z AUTO 16008KT 4SM BR OVC006 01/M01 A2959 RMK AO2
Loading
Personal Weather Stations






























Interactive Weather Map New forecast layout! Learn more

10-Day Weather Forecast

Advertisements
Track Severe Weather on mobile